Time;durP1;ratioP1;P1;durP2;ratioP2;P2;SDS_P1;SDS_P2;PMS_P1;PMS_P2;Temp;Humidity;BMP_temperature;BMP_pressure;BME280_temperature;BME280_humidity;BME280_pressure;Samples;Min_cycle;Max_cycle;Signal;HPM_P1;HPM_P2
2021/08/25 00:00:39;;;;;;;25.90;15.60;;;;;;;16.87;86.16;99396.70;115396;1202;139926;-59
2021/08/25 00:03:08;;;;;;;19.10;14.90;;;;;;;16.87;86.08;99394.73;115490;1203;22358;-59
2021/08/25 00:05:36;;;;;;;21.70;15.20;;;;;;;16.87;86.03;99389.23;115422;1203;139264;-59
2021/08/25 00:08:04;;;;;;;24.80;15.80;;;;;;;16.87;85.97;99389.33;115463;1204;22340;-59
2021/08/25 00:10:32;;;;;;;22.60;16.30;;;;;;;16.88;85.53;99393.31;115589;1203;22294;-59
2021/08/25 00:13:06;;;;;;;22.20;18.20;;;;;;;16.89;85.44;99392.95;115423;1201;138154;-59
2021/08/25 00:15:36;;;;;;;28.50;21.50;;;;;;;16.89;85.12;99389.65;115523;1204;22379;-60
2021/08/25 00:18:05;;;;;;;29.80;21.70;;;;;;;16.85;85.05;99384.80;115375;1201;140188;-59
2021/08/25 00:20:33;;;;;;;28.30;22.60;;;;;;;16.81;85.03;99380.73;115530;1206;22351;-59
2021/08/25 00:25:00;;;;;;;29.00;22.80;;;;;;;16.80;85.25;99394.99;110150;1217;544912;-61
2021/08/25 00:27:28;;;;;;;29.60;21.60;;;;;;;16.79;85.41;99401.46;111178;1212;22559;-61
2021/08/25 00:29:56;;;;;;;24.70;20.40;;;;;;;16.84;85.46;99414.59;111067;1205;137553;-61
2021/08/25 00:32:24;;;;;;;26.00;20.30;;;;;;;16.87;85.44;99420.70;115182;1209;22377;-61
2021/08/25 00:34:53;;;;;;;25.60;19.60;;;;;;;16.91;85.47;99422.15;115301;1210;22327;-62
2021/08/25 00:37:21;;;;;;;24.80;19.10;;;;;;;16.94;85.30;99418.80;115225;1204;137431;-62
2021/08/25 00:39:50;;;;;;;28.20;19.60;;;;;;;16.98;85.28;99420.23;114083;1208;22446;-61
2021/08/25 00:42:18;;;;;;;29.90;19.20;;;;;;;17.02;85.14;99425.08;110947;1205;137658;-61
2021/08/25 00:44:46;;;;;;;27.70;19.00;;;;;;;17.06;85.17;99425.85;110950;1210;24135;-61
2021/08/25 00:47:15;;;;;;;25.00;18.40;;;;;;;17.09;85.11;99420.85;111151;1208;22460;-59
2021/08/25 00:49:44;;;;;;;25.40;19.30;;;;;;;17.11;85.04;99418.08;115211;1209;137466;-60
2021/08/25 00:52:12;;;;;;;23.20;19.40;;;;;;;17.13;85.11;99411.69;115324;1216;22213;-60
2021/08/25 00:54:40;;;;;;;25.40;19.60;;;;;;;17.14;84.99;99411.52;115231;1208;137751;-60
2021/08/25 00:57:09;;;;;;;24.60;18.60;;;;;;;17.11;84.90;99419.92;115306;1208;22318;-60
2021/08/25 00:59:37;;;;;;;26.80;17.80;;;;;;;17.10;85.07;99429.03;115192;1205;138012;-60
2021/08/25 01:02:16;;;;;;;24.90;19.10;;;;;;;17.10;85.06;99431.23;115310;1216;22296;-60
2021/08/25 01:04:47;;;;;;;25.30;18.40;;;;;;;17.11;85.11;99429.08;115304;1208;22360;-60
2021/08/25 01:07:15;;;;;;;24.00;18.40;;;;;;;17.12;85.12;99424.88;115183;1205;138306;-60
2021/08/25 01:09:43;;;;;;;25.60;18.00;;;;;;;17.12;85.15;99420.68;115359;1208;22303;-60
2021/08/25 01:12:13;;;;;;;23.60;18.80;;;;;;;17.13;85.09;99421.05;115163;1205;137590;-60
2021/08/25 01:15:01;;;;;;;23.00;17.60;;;;;;;17.15;85.03;99420.15;115330;1208;22252;-60
2021/08/25 01:17:29;;;;;;;25.70;17.30;;;;;;;17.16;84.93;99409.55;115178;1205;138274;-60
2021/08/25 01:20:08;;;;;;;23.80;17.30;;;;;;;17.14;84.84;99398.69;115228;1212;23479;-60
2021/08/25 01:22:39;;;;;;;26.30;17.70;;;;;;;17.09;84.80;99397.60;115543;1204;22400;-60
2021/08/25 01:25:08;;;;;;;23.70;17.70;;;;;;;17.08;85.01;99405.61;115402;1201;138594;-60
2021/08/25 01:27:41;;;;;;;19.00;15.90;;;;;;;17.09;85.14;99408.35;115499;1204;23266;-60
2021/08/25 01:30:10;;;;;;;24.20;16.70;;;;;;;17.11;85.11;99402.53;115378;1201;140758;-60
2021/08/25 01:32:39;;;;;;;25.10;16.10;;;;;;;17.12;84.92;99396.68;115529;1204;22376;-60
2021/08/25 01:35:07;;;;;;;23.20;16.70;;;;;;;17.12;84.88;99396.23;115630;1205;22307;-60
2021/08/25 01:37:35;;;;;;;23.70;16.40;;;;;;;17.13;84.70;99391.32;115467;1201;137799;-61
2021/08/25 01:40:04;;;;;;;22.90;17.70;;;;;;;17.13;84.61;99388.56;115637;1204;23741;-60
2021/08/25 01:42:32;;;;;;;24.30;16.00;;;;;;;17.10;84.57;99387.67;115431;1202;137608;-60
2021/08/25 01:45:00;;;;;;;22.20;17.00;;;;;;;17.07;84.65;99381.52;115573;1205;22341;-60
2021/08/25 01:47:28;;;;;;;23.70;17.90;;;;;;;17.07;84.78;99383.77;115517;1201;137849;-60
2021/08/25 01:49:56;;;;;;;20.70;15.90;;;;;;;17.06;84.75;99382.63;115558;1205;22291;-60
2021/08/25 01:52:24;;;;;;;25.60;16.20;;;;;;;17.01;84.56;99370.08;115587;1205;22346;-60
2021/08/25 01:54:53;;;;;;;19.00;15.20;;;;;;;16.95;84.33;99366.04;115522;1200;137731;-60
2021/08/25 01:57:21;;;;;;;22.50;16.30;;;;;;;16.91;84.39;99366.50;115428;1207;22262;-60
2021/08/25 01:59:49;;;;;;;21.50;15.90;;;;;;;16.89;84.45;99363.30;115508;1202;138123;-60
2021/08/25 02:02:17;;;;;;;23.20;17.20;;;;;;;16.87;84.47;99361.42;115649;1204;22323;-60
2021/08/25 02:04:45;;;;;;;17.90;15.90;;;;;;;16.87;84.48;99357.01;115545;1210;22300;-60
2021/08/25 02:07:13;;;;;;;20.60;16.30;;;;;;;16.85;84.58;99359.80;115452;1202;138218;-60
2021/08/25 02:09:41;;;;;;;24.40;16.50;;;;;;;16.83;84.59;99359.95;115655;1205;22283;-60
2021/08/25 02:12:09;;;;;;;22.80;16.90;;;;;;;16.79;84.80;99352.70;115416;1200;138067;-60
2021/08/25 02:14:38;;;;;;;20.40;17.30;;;;;;;16.75;84.79;99340.32;115619;1204;22229;-60
2021/08/25 02:17:06;;;;;;;23.20;17.00;;;;;;;16.71;84.92;99340.31;115613;1204;22255;-60
2021/08/25 02:19:37;;;;;;;22.30;16.40;;;;;;;16.68;85.15;99342.71;115499;1201;137768;-59
2021/08/25 02:22:05;;;;;;;22.60;17.00;;;;;;;16.69;85.30;99338.92;115600;1205;23049;-59
2021/08/25 02:24:34;;;;;;;25.20;17.00;;;;;;;16.69;85.39;99339.46;115532;1201;138315;-59
2021/08/25 02:27:02;;;;;;;18.40;16.00;;;;;;;16.70;85.46;99337.47;115601;1204;23023;-60
2021/08/25 02:29:32;;;;;;;20.70;17.50;;;;;;;16.69;85.56;99339.57;115416;1202;138196;-59
2021/08/25 02:32:00;;;;;;;21.10;17.00;;;;;;;16.70;85.76;99337.63;115621;1205;22310;-59
2021/08/25 02:34:28;;;;;;;25.80;17.70;;;;;;;16.70;85.71;99337.90;115538;1204;22305;-59
2021/08/25 02:36:56;;;;;;;21.90;17.30;;;;;;;16.69;85.76;99336.98;115455;1201;138332;-60
2021/08/25 02:39:24;;;;;;;22.50;17.60;;;;;;;16.67;85.82;99336.80;115638;1210;22289;-60
2021/08/25 02:41:52;;;;;;;20.70;16.50;;;;;;;16.67;85.80;99338.66;115390;1201;138187;-60
2021/08/25 02:44:20;;;;;;;19.00;15.40;;;;;;;16.65;85.82;99329.23;115487;1204;22231;-60
2021/08/25 02:46:48;;;;;;;21.30;15.80;;;;;;;16.61;85.90;99318.93;115626;1205;22381;-60
2021/08/25 02:49:18;;;;;;;19.40;15.00;;;;;;;16.56;85.89;99316.00;115455;1200;138617;-60
2021/08/25 02:51:46;;;;;;;19.60;15.30;;;;;;;16.53;85.89;99320.89;115439;1204;22398;-60
2021/08/25 02:54:14;;;;;;;18.10;14.80;;;;;;;16.51;85.98;99327.30;115394;1201;138714;-60
2021/08/25 02:56:42;;;;;;;17.60;14.80;;;;;;;16.52;86.08;99330.85;115595;1205;23703;-60
2021/08/25 02:59:10;;;;;;;16.00;14.30;;;;;;;16.54;86.07;99325.05;115570;1203;23032;-60
2021/08/25 03:01:39;;;;;;;20.40;15.00;;;;;;;16.56;86.05;99324.73;115500;1205;137642;-60
2021/08/25 03:04:08;;;;;;;19.30;14.80;;;;;;;16.57;85.99;99322.31;115533;1204;22297;-60
2021/08/25 03:06:56;;;;;;;20.60;14.70;;;;;;;16.56;85.98;99314.30;115389;1201;137878;-61
2021/08/25 03:09:25;;;;;;;18.90;15.90;;;;;;;16.53;85.96;99318.20;115563;1205;22970;-61
2021/08/25 03:11:53;;;;;;;22.50;16.60;;;;;;;16.51;86.05;99322.63;115450;1201;138149;-60
2021/08/25 03:14:21;;;;;;;21.60;15.60;;;;;;;16.52;86.03;99328.28;115607;1204;22295;-60
2021/08/25 03:16:50;;;;;;;17.70;13.90;;;;;;;16.54;86.16;99327.42;115627;1206;22298;-61
2021/08/25 03:19:18;;;;;;;18.40;14.40;;;;;;;16.56;85.99;99334.27;115335;1201;137806;-60
2021/08/25 03:21:57;;;;;;;23.20;15.50;;;;;;;16.58;86.07;99333.23;115568;1205;23378;-60
2021/08/25 03:24:25;;;;;;;20.20;14.50;;;;;;;16.61;86.13;99331.30;115473;1201;138925;-60
2021/08/25 03:26:55;;;;;;;17.50;14.60;;;;;;;16.65;86.01;99330.40;115558;1204;23104;-60
2021/08/25 03:29:23;;;;;;;20.30;14.00;;;;;;;16.64;86.07;99327.31;115540;1208;22204;-60
2021/08/25 03:31:51;;;;;;;18.00;15.10;;;;;;;16.61;86.06;99327.66;115447;1198;137621;-60
2021/08/25 03:34:20;;;;;;;22.40;14.40;;;;;;;16.60;86.21;99325.86;115549;1204;22369;-60
2021/08/25 03:36:48;;;;;;;18.20;15.60;;;;;;;16.62;86.44;99333.27;115452;1201;137833;-60
2021/08/25 03:39:16;;;;;;;20.20;15.70;;;;;;;16.65;86.48;99331.98;115530;1206;22343;-60
2021/08/25 03:41:44;;;;;;;18.10;15.30;;;;;;;16.70;86.67;99334.82;115474;1200;138194;-60
2021/08/25 03:44:12;;;;;;;21.10;16.30;;;;;;;16.74;86.57;99332.43;115597;1203;22277;-60
2021/08/25 03:46:41;;;;;;;18.80;15.30;;;;;;;16.76;86.53;99333.37;115636;1209;22202;-60
2021/08/25 03:49:09;;;;;;;18.30;15.00;;;;;;;16.78;86.46;99330.64;115471;1202;138015;-60
2021/08/25 03:51:37;;;;;;;20.40;14.00;;;;;;;16.78;86.39;99334.33;115512;1204;22335;-61
2021/08/25 03:54:05;;;;;;;21.60;15.20;;;;;;;16.79;86.34;99333.27;115515;1201;138537;-61
2021/08/25 03:56:33;;;;;;;19.10;14.50;;;;;;;16.83;86.51;99335.58;115575;1204;22404;-61
2021/08/25 03:59:03;;;;;;;19.10;14.70;;;;;;;16.86;86.60;99329.02;115598;1205;23313;-60
2021/08/25 04:01:32;;;;;;;18.90;14.00;;;;;;;16.89;86.62;99326.90;115496;1201;138671;-60
2021/08/25 04:04:06;;;;;;;20.10;13.90;;;;;;;16.90;86.44;99326.11;115609;1204;22346;-60
2021/08/25 04:06:35;;;;;;;19.90;13.90;;;;;;;16.91;86.46;99329.73;115471;1201;137662;-60
2021/08/25 04:09:03;;;;;;;21.20;14.40;;;;;;;16.91;86.48;99330.27;115665;1205;22339;-61
2021/08/25 04:11:33;;;;;;;16.70;13.50;;;;;;;16.92;86.35;99327.73;115381;1201;138655;-62
2021/08/25 04:14:01;;;;;;;18.90;15.00;;;;;;;16.93;86.26;99327.05;115424;1205;22463;-63
2021/08/25 04:16:30;;;;;;;24.10;17.50;;;;;;;16.94;86.31;99328.58;115627;1204;22261;-63
2021/08/25 04:18:58;;;;;;;25.70;19.70;;;;;;;16.98;86.29;99323.02;115380;1201;138100;-63
2021/08/25 04:21:26;;;;;;;22.10;18.60;;;;;;;17.01;86.27;99322.41;115615;1205;22775;-63
2021/08/25 04:23:54;;;;;;;27.40;20.50;;;;;;;17.04;86.26;99319.52;115500;1200;138254;-62
2021/08/25 04:26:22;;;;;;;29.90;23.30;;;;;;;17.06;86.32;99314.52;115542;1205;22334;-63
2021/08/25 04:28:50;;;;;;;31.80;23.70;;;;;;;17.10;86.29;99314.96;115590;1205;22288;-63
2021/08/25 04:31:18;;;;;;;25.20;20.20;;;;;;;17.12;86.35;99312.44;115508;1201;137675;-63
2021/08/25 04:33:46;;;;;;;28.70;19.30;;;;;;;17.14;86.26;99307.92;115475;1204;23560;-62
2021/08/25 04:36:14;;;;;;;25.80;18.80;;;;;;;17.14;86.14;99305.57;115484;1201;138234;-62
2021/08/25 04:38:43;;;;;;;22.80;18.50;;;;;;;17.12;85.93;99308.09;115623;1205;22292;-63
2021/08/25 04:41:11;;;;;;;22.10;17.10;;;;;;;17.12;86.06;99309.45;112188;1211;23318;-62
2021/08/25 04:43:39;;;;;;;21.40;16.50;;;;;;;17.15;85.99;99312.77;115230;1200;138181;-62
2021/08/25 04:46:07;;;;;;;20.60;16.20;;;;;;;17.15;85.76;99311.83;115610;1204;22271;-62
2021/08/25 04:48:35;;;;;;;19.60;16.30;;;;;;;17.18;85.82;99311.48;115488;1201;138091;-63
2021/08/25 04:51:03;;;;;;;21.40;16.90;;;;;;;17.18;85.63;99306.85;115565;1204;22436;-62
2021/08/25 04:53:31;;;;;;;20.50;15.50;;;;;;;17.17;85.65;99306.59;115491;1201;138079;-63
2021/08/25 04:56:00;;;;;;;21.90;16.00;;;;;;;17.15;85.53;99308.90;115602;1204;22333;-62
2021/08/25 04:58:29;;;;;;;20.60;13.80;;;;;;;17.16;85.45;99308.60;115518;1204;22350;-62
2021/08/25 05:00:57;;;;;;;20.70;14.50;;;;;;;17.16;85.14;99304.87;115501;1201;139274;-63
2021/08/25 05:03:25;;;;;;;18.20;13.60;;;;;;;17.16;84.89;99309.22;115553;1205;23309;-62
2021/08/25 05:06:09;;;;;;;16.40;13.10;;;;;;;17.19;84.67;99308.58;115676;1199;138158;-62
2021/08/25 05:08:37;;;;;;;16.50;13.20;;;;;;;17.21;84.21;99306.63;115720;1202;23064;-63
2021/08/25 05:11:07;;;;;;;15.70;13.00;;;;;;;17.20;83.93;99307.73;115749;1203;22307;-64
2021/08/25 05:13:37;;;;;;;16.50;14.20;;;;;;;17.24;83.95;99306.13;115666;1199;139188;-65
2021/08/25 05:16:12;;;;;;;21.20;15.30;;;;;;;17.29;84.00;99305.48;115611;1204;22254;-62
2021/08/25 05:18:40;;;;;;;18.30;14.20;;;;;;;17.35;84.10;99301.66;115535;1199;138328;-64
2021/08/25 05:21:09;;;;;;;20.40;14.70;;;;;;;17.39;84.09;99302.79;115758;1203;22350;-64
2021/08/25 05:23:37;;;;;;;16.60;13.30;;;;;;;17.44;84.04;99304.23;115673;1198;138551;-64
2021/08/25 05:26:05;;;;;;;19.00;14.10;;;;;;;17.48;84.01;99301.71;115686;1202;22187;-63
2021/08/25 05:28:34;;;;;;;19.90;15.00;;;;;;;17.52;83.96;99304.38;115768;1202;22301;-63
2021/08/25 05:31:02;;;;;;;16.70;14.20;;;;;;;17.56;83.85;99300.88;115655;1199;138054;-63
2021/08/25 05:33:31;;;;;;;18.90;14.70;;;;;;;17.59;83.78;99298.17;115797;1204;22300;-63
2021/08/25 05:35:59;;;;;;;18.70;15.10;;;;;;;17.61;83.53;99297.61;115639;1199;138583;-63
2021/08/25 05:38:27;;;;;;;18.60;14.80;;;;;;;17.62;83.47;99295.98;115783;1209;22310;-63
2021/08/25 05:40:56;;;;;;;20.60;15.50;;;;;;;17.63;83.27;99292.50;115713;1203;22255;-60
2021/08/25 05:43:24;;;;;;;22.90;17.00;;;;;;;17.65;83.34;99290.49;115545;1198;138000;-57
2021/08/25 05:45:52;;;;;;;24.40;15.90;;;;;;;17.66;83.18;99292.36;115540;1204;22428;-57
2021/08/25 05:48:21;;;;;;;21.70;15.80;;;;;;;17.68;83.20;99296.61;115609;1199;138423;-56
2021/08/25 05:50:49;;;;;;;22.30;17.80;;;;;;;17.71;83.35;99295.71;115732;1203;22408;-57
2021/08/25 05:53:17;;;;;;;21.20;18.00;;;;;;;17.75;83.37;99291.16;115591;1202;22218;-57
2021/08/25 05:55:45;;;;;;;22.30;18.40;;;;;;;17.77;83.29;99289.02;115603;1203;138103;-56
2021/08/25 05:58:13;;;;;;;23.10;16.80;;;;;;;17.81;83.42;99285.52;115775;1205;22846;-57
2021/08/25 06:00:41;;;;;;;20.80;17.40;;;;;;;17.85;83.52;99285.14;115604;1199;138444;-57
2021/08/25 06:03:09;;;;;;;20.80;17.70;;;;;;;17.90;83.45;99284.20;115720;1202;22390;-56
2021/08/25 06:05:38;;;;;;;20.20;15.70;;;;;;;17.94;83.21;99283.10;115638;1198;138154;-57
2021/08/25 06:08:06;;;;;;;18.00;15.60;;;;;;;17.96;82.85;99286.67;115625;1202;22825;-56
2021/08/25 06:10:34;;;;;;;19.00;16.70;;;;;;;18.01;82.95;99287.34;115676;1210;22333;-57
2021/08/25 06:13:02;;;;;;;23.40;17.60;;;;;;;18.08;83.00;99289.16;115604;1198;137956;-57
2021/08/25 06:15:30;;;;;;;18.80;16.60;;;;;;;18.15;82.89;99285.85;115707;1202;22356;-58
2021/08/25 06:17:58;;;;;;;22.60;17.80;;;;;;;18.19;82.62;99289.86;115598;1201;141082;-58
2021/08/25 06:20:28;;;;;;;21.50;17.30;;;;;;;18.23;82.38;99288.17;115765;1208;22318;-58
2021/08/25 06:22:56;;;;;;;24.10;18.60;;;;;;;18.28;82.28;99286.89;115665;1204;22450;-59
2021/08/25 06:25:24;;;;;;;26.70;23.30;;;;;;;18.34;82.12;99284.67;115609;1202;138464;-58
2021/08/25 06:27:53;;;;;;;53.70;47.90;;;;;;;18.41;82.07;99285.64;115714;1204;23127;-58
2021/08/25 06:30:21;;;;;;;69.90;63.00;;;;;;;18.50;82.09;99284.05;115636;1199;138462;-58
2021/08/25 06:32:49;;;;;;;56.20;50.50;;;;;;;18.61;81.80;99285.19;115622;1209;23213;-58
2021/08/25 06:35:17;;;;;;;25.00;20.00;;;;;;;18.73;81.62;99286.90;115733;1203;22378;-58
2021/08/25 06:37:45;;;;;;;23.80;16.70;;;;;;;18.89;81.51;99283.38;115464;1199;138403;-58
2021/08/25 06:40:14;;;;;;;21.20;15.10;;;;;;;19.03;80.87;99282.19;115790;1209;22234;-58
2021/08/25 06:42:42;;;;;;;17.40;14.20;;;;;;;19.18;80.04;99284.26;115638;1200;138017;-58
2021/08/25 06:45:11;;;;;;;18.90;13.90;;;;;;;19.31;79.27;99289.40;115780;1209;22268;-58
2021/08/25 06:47:39;;;;;;;15.70;13.20;;;;;;;19.43;78.39;99295.11;115631;1201;140265;-58
2021/08/25 06:50:07;;;;;;;18.70;14.30;;;;;;;19.54;77.81;99300.34;115753;1206;22819;-58
2021/08/25 06:52:35;;;;;;;21.80;14.30;;;;;;;19.64;77.53;99298.81;115678;1204;22367;-58
2021/08/25 06:55:03;;;;;;;21.00;13.90;;;;;;;19.72;77.19;99294.05;115414;1201;137949;-58
2021/08/25 06:57:31;;;;;;;17.80;13.20;;;;;;;19.78;76.95;99294.09;115695;1204;22195;-58
2021/08/25 06:59:59;;;;;;;18.20;13.20;;;;;;;19.85;76.49;99298.13;115656;1201;138142;-58
2021/08/25 07:02:27;;;;;;;20.50;13.20;;;;;;;19.90;76.27;99295.60;115769;1205;23493;-58
2021/08/25 07:04:56;;;;;;;17.20;13.90;;;;;;;19.95;76.13;99294.64;115696;1202;22305;-58
2021/08/25 07:07:24;;;;;;;19.40;14.40;;;;;;;20.02;76.09;99298.63;115632;1199;139178;-58
2021/08/25 07:09:52;;;;;;;19.20;14.70;;;;;;;20.09;75.67;99302.15;115780;1203;22360;-59
2021/08/25 07:12:21;;;;;;;18.20;14.30;;;;;;;20.14;75.31;99310.29;115636;1198;137981;-58
2021/08/25 07:14:50;;;;;;;20.60;15.60;;;;;;;20.19;75.18;99320.00;115785;1202;22242;-58
2021/08/25 07:17:18;;;;;;;18.90;16.30;;;;;;;20.20;75.03;99321.71;115749;1202;22246;-58
2021/08/25 07:19:46;;;;;;;20.00;16.50;;;;;;;20.22;75.30;99316.16;115628;1201;140002;-58
2021/08/25 07:22:15;;;;;;;22.00;15.90;;;;;;;20.23;75.51;99312.98;115690;1202;22492;-61
2021/08/25 07:24:43;;;;;;;22.80;16.80;;;;;;;20.25;75.47;99314.70;115593;1198;138149;-57
2021/08/25 07:27:11;;;;;;;16.90;13.50;;;;;;;20.25;75.07;99309.72;115727;1203;22105;-57
2021/08/25 07:29:39;;;;;;;21.90;16.10;;;;;;;20.23;74.86;99313.70;115559;1199;138151;-57
2021/08/25 07:32:07;;;;;;;17.70;15.30;;;;;;;20.20;74.61;99312.30;115728;1205;22311;-57
2021/08/25 07:34:36;;;;;;;21.00;14.70;;;;;;;20.16;74.28;99311.80;115806;1203;23076;-58
2021/08/25 07:37:04;;;;;;;18.70;14.50;;;;;;;20.11;74.30;99311.66;115584;1200;138050;-58
2021/08/25 07:39:32;;;;;;;15.90;13.90;;;;;;;20.07;74.32;99311.46;115754;1202;22487;-58
2021/08/25 07:42:00;;;;;;;22.60;14.50;;;;;;;20.03;74.44;99309.39;115695;1199;139015;-58
2021/08/25 07:44:28;;;;;;;22.90;14.40;;;;;;;20.00;74.79;99306.36;115785;1202;22326;-57
2021/08/25 07:46:56;;;;;;;15.30;13.30;;;;;;;19.98;74.71;99304.66;115731;1204;22346;-58
2021/08/25 07:49:24;;;;;;;20.80;15.20;;;;;;;19.94;74.70;99297.92;115632;1201;138012;-59
2021/08/25 07:51:53;;;;;;;20.00;14.60;;;;;;;19.91;74.91;99291.21;115771;1204;22432;-58
2021/08/25 07:54:21;;;;;;;20.60;15.40;;;;;;;19.90;75.16;99294.59;115595;1201;138309;-59
2021/08/25 07:56:49;;;;;;;21.80;15.60;;;;;;;19.89;75.39;99296.19;115713;1204;23821;-57
2021/08/25 07:59:17;;;;;;;21.60;16.10;;;;;;;19.88;75.60;99303.83;115761;1204;22331;-58
2021/08/25 08:01:45;;;;;;;22.50;15.80;;;;;;;19.88;75.85;99308.54;115681;1202;137970;-57
2021/08/25 08:04:14;;;;;;;24.70;16.50;;;;;;;19.86;75.96;99308.15;115723;1204;22389;-57
2021/08/25 08:06:50;;;;;;;24.40;16.80;;;;;;;19.84;76.02;99307.06;115548;1201;138016;-57
2021/08/25 08:09:18;;;;;;;21.90;16.50;;;;;;;19.83;76.24;99303.07;115823;1209;22390;-57
2021/08/25 08:11:47;;;;;;;27.40;18.70;;;;;;;19.85;76.52;99303.56;115584;1201;139444;-57
2021/08/25 08:14:15;;;;;;;26.00;18.20;;;;;;;19.86;76.29;99303.41;115676;1204;22367;-58
2021/08/25 08:16:55;;;;;;;25.10;18.30;;;;;;;19.87;76.48;99302.91;115778;1204;22167;-57
2021/08/25 08:19:29;;;;;;;26.80;17.70;;;;;;;19.89;76.34;99307.27;115632;1201;138763;-58
2021/08/25 08:21:58;;;;;;;24.00;17.90;;;;;;;19.89;76.25;99306.14;115767;1204;22232;-58
2021/08/25 08:24:29;;;;;;;23.20;17.00;;;;;;;19.88;76.38;99304.99;115688;1202;138247;-57
2021/08/25 08:26:58;;;;;;;20.60;15.50;;;;;;;19.88;76.60;99303.40;115696;1209;22445;-58
2021/08/25 08:29:27;;;;;;;21.10;15.20;;;;;;;19.88;76.52;99301.52;115704;1203;22303;-57
2021/08/25 08:31:55;;;;;;;27.10;16.90;;;;;;;19.89;76.54;99298.23;115613;1201;138774;-58
2021/08/25 08:34:24;;;;;;;26.60;18.30;;;;;;;19.90;76.68;99298.53;115513;1204;22310;-59
2021/08/25 08:36:52;;;;;;;27.30;16.80;;;;;;;19.93;76.78;99292.71;115639;1201;138433;-58
2021/08/25 08:39:20;;;;;;;21.60;17.40;;;;;;;19.98;76.86;99290.58;115585;1204;22350;-58
2021/08/25 08:41:48;;;;;;;23.00;16.40;;;;;;;20.03;76.72;99289.48;115658;1201;138362;-58
2021/08/25 08:44:18;;;;;;;23.90;18.60;;;;;;;20.09;76.78;99294.73;115815;1206;22301;-58
2021/08/25 08:46:49;;;;;;;23.60;16.90;;;;;;;20.15;76.69;99295.33;115745;1205;22973;-58
2021/08/25 08:49:18;;;;;;;23.00;17.10;;;;;;;20.21;76.41;99291.93;115669;1200;139236;-58
2021/08/25 08:51:47;;;;;;;20.90;16.20;;;;;;;20.25;76.17;99296.16;115612;1205;22332;-58
2021/08/25 08:54:15;;;;;;;19.20;15.90;;;;;;;20.28;75.82;99291.80;115488;1202;138334;-58
2021/08/25 08:56:43;;;;;;;21.90;16.30;;;;;;;20.32;75.90;99290.79;115791;1209;22394;-58
2021/08/25 08:59:12;;;;;;;18.50;14.90;;;;;;;20.36;75.82;99294.63;115752;1204;23147;-58
2021/08/25 09:01:40;;;;;;;19.80;15.10;;;;;;;20.41;75.39;99291.11;115648;1201;137958;-59
2021/08/25 09:04:31;;;;;;;21.00;15.40;;;;;;;20.43;74.86;99288.90;115795;1205;22311;-64
2021/08/25 09:06:59;;;;;;;18.60;14.30;;;;;;;20.48;74.95;99285.83;115683;1202;138074;-65
2021/08/25 09:09:28;;;;;;;20.00;12.90;;;;;;;20.64;75.08;99282.52;115721;1209;22336;-63
2021/08/25 09:12:09;;;;;;;14.70;11.90;;;;;;;20.88;74.48;99284.14;115529;1202;138438;-61
2021/08/25 09:14:38;;;;;;;16.80;13.00;;;;;;;21.15;73.85;99276.64;115446;1204;23118;-60
2021/08/25 09:17:06;;;;;;;14.20;11.60;;;;;;;21.44;72.93;99274.23;115703;1205;23126;-58
2021/08/25 09:19:35;;;;;;;15.20;10.80;;;;;;;21.72;72.10;99267.80;115487;1198;138809;-59
2021/08/25 09:22:17;;;;;;;13.00;11.10;;;;;;;21.99;71.06;99274.09;115601;1205;22368;-60
2021/08/25 09:24:46;;;;;;;11.60;10.10;;;;;;;22.27;70.08;99271.23;115578;1201;139305;-61
2021/08/25 09:27:15;;;;;;;10.90;9.80;;;;;;;22.48;69.48;99272.55;115702;1204;22355;-62
2021/08/25 09:29:44;;;;;;;11.30;10.10;;;;;;;22.66;68.52;99272.23;115568;1201;138928;-61
2021/08/25 09:32:25;;;;;;;13.20;10.70;;;;;;;22.83;68.18;99270.20;115599;1204;22353;-61
2021/08/25 09:34:58;;;;;;;17.10;10.10;;;;;;;22.96;67.04;99265.27;115754;1205;22388;-62
2021/08/25 09:37:27;;;;;;;12.10;10.20;;;;;;;23.09;67.37;99261.79;115667;1201;138391;-61
2021/08/25 09:39:57;;;;;;;17.60;9.80;;;;;;;23.22;67.05;99254.42;115771;1204;23026;-62
2021/08/25 09:42:41;;;;;;;12.40;10.60;;;;;;;23.32;66.76;99251.17;115685;1201;138394;-62
2021/08/25 09:45:12;;;;;;;11.10;9.40;;;;;;;23.39;66.28;99247.97;115770;1202;22178;-62
2021/08/25 09:47:53;;;;;;;12.20;9.60;;;;;;;23.42;65.32;99244.89;115587;1199;138180;-62
2021/08/25 09:50:24;;;;;;;13.60;10.00;;;;;;;23.42;65.20;99250.20;115774;1205;22367;-62
2021/08/25 09:52:52;;;;;;;14.20;10.10;;;;;;;23.37;64.78;99247.20;115779;1209;23306;-62
2021/08/25 09:55:34;;;;;;;12.70;10.20;;;;;;;23.27;64.36;99249.58;115610;1199;139021;-57
2021/08/25 09:58:03;;;;;;;14.10;11.20;;;;;;;23.13;64.38;99250.95;115763;1209;22379;-57
2021/08/25 10:00:31;;;;;;;11.50;10.30;;;;;;;23.00;64.30;99250.05;115673;1203;138609;-58
2021/08/25 10:02:59;;;;;;;10.60;9.40;;;;;;;22.86;64.39;99248.58;115563;1205;23090;-58
2021/08/25 10:05:29;;;;;;;13.40;10.60;;;;;;;22.75;64.42;99240.17;115603;1204;22379;-57
2021/08/25 10:08:00;;;;;;;12.60;10.70;;;;;;;22.64;64.57;99232.39;115442;1201;138275;-57
2021/08/25 10:10:28;;;;;;;14.00;11.20;;;;;;;22.56;65.03;99236.10;115745;1205;23383;-57
2021/08/25 10:12:56;;;;;;;12.40;10.60;;;;;;;22.52;65.40;99236.65;115643;1201;138482;-58
2021/08/25 10:15:31;;;;;;;14.40;11.10;;;;;;;22.47;65.78;99239.52;115764;1205;22299;-57
2021/08/25 10:17:59;;;;;;;13.40;10.40;;;;;;;22.43;66.13;99232.80;115723;1198;138176;-58
2021/08/25 10:20:34;;;;;;;13.90;9.90;;;;;;;22.41;66.40;99232.88;115694;1210;22321;-58
2021/08/25 10:23:02;;;;;;;14.80;11.30;;;;;;;22.40;66.54;99229.98;115694;1205;22664;-58
2021/08/25 10:25:31;;;;;;;17.60;11.60;;;;;;;22.41;66.32;99223.35;115525;1201;138445;-58
2021/08/25 10:28:07;;;;;;;15.30;10.80;;;;;;;22.41;66.52;99222.48;115697;1205;23046;-58
2021/08/25 10:30:44;;;;;;;16.80;11.20;;;;;;;22.45;67.51;99226.83;115481;1205;138450;-58
2021/08/25 10:33:13;;;;;;;12.90;10.90;;;;;;;22.51;67.85;99223.32;115699;1205;22268;-57
2021/08/25 10:35:43;;;;;;;13.50;10.30;;;;;;;22.59;67.30;99221.67;115499;1201;139637;-57
2021/08/25 10:38:28;;;;;;;11.90;10.00;;;;;;;22.67;67.04;99222.27;115705;1204;22247;-58
2021/08/25 10:41:19;;;;;;;10.50;9.40;;;;;;;22.75;67.07;99219.69;115767;1203;22382;-58
2021/08/25 10:43:48;;;;;;;9.10;8.10;;;;;;;22.81;66.38;99208.23;115539;1198;137765;-58
2021/08/25 10:46:17;;;;;;;10.70;8.40;;;;;;;22.86;65.80;99208.09;115817;1205;22296;-59
2021/08/25 10:48:55;;;;;;;10.50;8.60;;;;;;;22.91;65.54;99203.50;115472;1201;138743;-58
2021/08/25 10:51:34;;;;;;;10.00;8.00;;;;;;;22.95;65.28;99190.66;115613;1205;22332;-58
2021/08/25 10:54:04;;;;;;;9.30;8.40;;;;;;;22.98;64.84;99185.99;115630;1198;139047;-58
2021/08/25 10:56:37;;;;;;;10.40;8.00;;;;;;;23.01;64.11;99181.50;115506;1209;22821;-58
2021/08/25 10:59:10;;;;;;;9.90;7.90;;;;;;;23.03;64.00;99181.16;115762;1206;22400;-59
2021/08/25 11:01:42;;;;;;;8.50;7.10;;;;;;;23.03;63.88;99173.05;115596;1199;138614;-58
2021/08/25 11:04:17;;;;;;;11.30;8.00;;;;;;;23.03;63.99;99175.83;115614;1205;22310;-58
2021/08/25 11:06:50;;;;;;;8.50;7.50;;;;;;;23.04;64.40;99173.20;115573;1200;138598;-59
2021/08/25 11:09:46;;;;;;;10.40;7.70;;;;;;;23.06;64.05;99172.13;115647;1205;22316;-58
2021/08/25 11:12:24;;;;;;;10.90;7.50;;;;;;;23.10;63.79;99169.40;115538;1201;138892;-58
2021/08/25 11:14:56;;;;;;;7.90;7.00;;;;;;;23.15;64.13;99166.52;115683;1205;23183;-58
2021/08/25 11:17:32;;;;;;;8.30;7.00;;;;;;;23.22;63.97;99166.81;115768;1210;22286;-58
2021/08/25 11:20:09;;;;;;;7.70;6.50;;;;;;;23.26;63.07;99168.79;115621;1199;137603;-58